Time;durP1;ratioP1;P1;durP2;ratioP2;P2;SDS_P1;SDS_P2;PMS_P1;PMS_P2;Temp;Humidity;BMP_temperature;BMP_pressure;BME280_temperature;BME280_humidity;BME280_pressure;Samples;Min_cycle;Max_cycle;Signal;HPM_P1;HPM_P2
2024/01/09 00:00:44;;;;;;;0.35;0.35;;;;;;;-1.04;79.04;103147.72;5009977;28;20553;-77
2024/01/09 00:03:09;;;;;;;0.45;0.45;;;;;;;-1.09;79.33;103158.16;5016903;28;20124;-76
2024/01/09 00:05:34;;;;;;;0.63;0.63;;;;;;;-1.08;80.08;103155.28;5014689;28;20553;-76
2024/01/09 00:08:01;;;;;;;0.70;0.70;;;;;;;-1.08;80.36;103163.22;4993250;28;20097;-76
2024/01/09 00:10:27;;;;;;;0.35;0.35;;;;;;;-0.98;79.71;103162.72;5014298;28;20037;-76
2024/01/09 00:12:53;;;;;;;0.77;0.77;;;;;;;-1.03;79.85;103159.94;4996955;28;20412;-76
2024/01/09 00:15:18;;;;;;;0.30;0.30;;;;;;;-0.98;78.77;103152.16;5018602;28;20033;-76
2024/01/09 00:17:44;;;;;;;0.85;0.85;;;;;;;-0.97;78.92;103154.59;5001021;28;20033;-76
2024/01/09 00:20:10;;;;;;;1.33;0.50;;;;;;;-1.07;79.41;103151.63;5015289;28;21415;-75
2024/01/09 00:22:36;;;;;;;0.30;0.30;;;;;;;-0.98;79.12;103154.81;5018110;28;20037;-75
2024/01/09 00:25:01;;;;;;;1.48;0.93;;;;;;;-0.99;78.52;103161.13;5018762;28;20056;-76
2024/01/09 00:27:26;;;;;;;3.50;0.88;;;;;;;-1.07;78.66;103156.94;5016451;28;20029;-76
2024/01/09 00:29:52;;;;;;;0.65;0.45;;;;;;;-1.11;79.29;103158.38;5027720;28;20037;-75
2024/01/09 00:32:18;;;;;;;0.40;0.40;;;;;;;-1.10;79.46;103159.97;5015881;28;20034;-75
2024/01/09 00:34:43;;;;;;;0.63;0.63;;;;;;;-1.09;78.87;103152.88;5018472;28;20083;-75
2024/01/09 00:37:08;;;;;;;0.45;0.45;;;;;;;-1.18;78.83;103151.53;5014748;28;20060;-75
2024/01/09 00:39:34;;;;;;;0.20;0.20;;;;;;;-1.18;78.98;103148.88;4989042;28;20169;-76
2024/01/09 00:42:00;;;;;;;0.60;0.60;;;;;;;-1.20;79.16;103153.56;5006732;28;20522;-75
2024/01/09 00:44:25;;;;;;;0.68;0.68;;;;;;;-1.23;78.72;103151.34;5005523;28;20060;-75
2024/01/09 00:46:51;;;;;;;0.73;0.40;;;;;;;-1.30;79.03;103154.03;5003790;28;20044;-76
2024/01/09 00:49:16;;;;;;;0.28;0.28;;;;;;;-1.30;79.15;103146.13;5022149;28;20049;-75
2024/01/09 00:51:42;;;;;;;1.08;0.98;;;;;;;-1.31;79.50;103144.47;5011172;28;20063;-75
2024/01/09 00:54:09;;;;;;;0.93;0.93;;;;;;;-1.30;79.80;103145.28;5019103;28;20037;-75
2024/01/09 00:56:34;;;;;;;0.52;0.52;;;;;;;-1.32;79.03;103139.41;5014770;28;20541;-75
2024/01/09 00:59:00;;;;;;;0.40;0.40;;;;;;;-1.33;78.92;103137.78;4998216;28;20075;-76
2024/01/09 01:01:25;;;;;;;1.20;1.10;;;;;;;-1.36;79.17;103135.59;5013019;28;20433;-76
2024/01/09 01:03:51;;;;;;;0.55;0.55;;;;;;;-1.40;79.45;103134.38;4997869;28;20037;-76
2024/01/09 01:06:16;;;;;;;0.50;0.50;;;;;;;-1.40;79.41;103132.56;5012850;28;20040;-75
2024/01/09 01:08:41;;;;;;;0.50;0.50;;;;;;;-1.36;78.73;103131.13;4994839;28;20040;-76
2024/01/09 01:11:08;;;;;;;0.60;0.60;;;;;;;-1.37;79.07;103131.31;5013038;28;20045;-78
2024/01/09 01:13:33;;;;;;;0.60;0.60;;;;;;;-1.34;78.64;103137.00;5016995;28;20095;-75
2024/01/09 01:15:59;;;;;;;0.38;0.38;;;;;;;-1.36;78.18;103135.59;5015157;28;20045;-75
2024/01/09 01:18:25;;;;;;;0.60;0.60;;;;;;;-1.43;78.57;103134.81;4993986;28;20049;-75
2024/01/09 01:20:51;;;;;;;0.30;0.30;;;;;;;-1.43;78.37;103126.91;4990506;28;20045;-76
2024/01/09 01:23:16;;;;;;;0.70;0.70;;;;;;;-1.44;78.80;103127.91;5009488;28;20063;-76
2024/01/09 01:25:42;;;;;;;0.68;0.68;;;;;;;-1.43;78.41;103132.97;4991973;28;20033;-75
2024/01/09 01:28:07;;;;;;;0.40;0.40;;;;;;;-1.46;78.78;103137.88;5012509;28;20045;-75
2024/01/09 01:30:33;;;;;;;0.73;0.73;;;;;;;-1.44;78.25;103131.38;5014664;28;20086;-75
2024/01/09 01:32:58;;;;;;;0.35;0.35;;;;;;;-1.48;78.55;103132.00;5016045;28;20636;-75
2024/01/09 01:35:25;;;;;;;0.65;0.52;;;;;;;-1.44;77.77;103135.84;5010791;28;20183;-76
2024/01/09 01:37:51;;;;;;;0.52;0.52;;;;;;;-1.45;77.69;103135.00;4995505;28;20534;-76
2024/01/09 01:40:17;;;;;;;0.38;0.38;;;;;;;-1.52;77.52;103136.09;5024826;28;20120;-76
2024/01/09 01:42:42;;;;;;;0.40;0.40;;;;;;;-1.56;77.34;103130.41;5012242;28;20115;-75
2024/01/09 01:45:16;;;;;;;2.38;0.95;;;;;;;-1.55;76.85;103134.69;5017866;28;20048;-75
2024/01/09 01:47:46;;;;;;;0.40;0.40;;;;;;;-1.65;77.29;103136.16;5016457;28;20053;-75
2024/01/09 01:50:14;;;;;;;0.30;0.30;;;;;;;-1.71;77.57;103129.91;5013072;28;20073;-75
2024/01/09 01:52:40;;;;;;;0.35;0.35;;;;;;;-1.70;77.41;103136.78;5011048;28;20029;-75
2024/01/09 01:55:11;;;;;;;0.50;0.50;;;;;;;-1.68;77.94;103134.75;5010538;28;20684;-75
2024/01/09 01:57:38;;;;;;;0.40;0.40;;;;;;;-1.68;77.94;103137.38;5027493;28;20067;-76
2024/01/09 02:00:05;;;;;;;0.40;0.40;;;;;;;-1.71;77.52;103139.66;5018230;28;20041;-75
2024/01/09 02:02:37;;;;;;;0.30;0.30;;;;;;;-1.68;77.23;103137.38;5015641;28;20142;-76
2024/01/09 02:05:03;;;;;;;0.57;0.57;;;;;;;-1.70;77.21;103128.09;5026006;28;20025;-75
2024/01/09 02:07:32;;;;;;;0.47;0.47;;;;;;;-1.68;77.27;103128.69;5025962;28;20610;-75
2024/01/09 02:09:58;;;;;;;0.80;0.50;;;;;;;-1.70;77.05;103125.44;5012677;28;20482;-76
2024/01/09 02:12:24;;;;;;;0.57;0.52;;;;;;;-1.75;77.26;103126.06;5016527;28;20189;-76
2024/01/09 02:14:49;;;;;;;0.75;0.65;;;;;;;-1.71;76.78;103129.09;5018912;28;20057;-75
2024/01/09 02:17:15;;;;;;;0.40;0.40;;;;;;;-1.72;76.93;103123.00;5014742;28;20143;-76
2024/01/09 02:19:42;;;;;;;0.50;0.50;;;;;;;-1.73;76.84;103125.84;5010866;28;20033;-75
2024/01/09 02:22:07;;;;;;;0.75;0.75;;;;;;;-1.75;76.78;103127.88;5011419;28;20038;-75
2024/01/09 02:24:33;;;;;;;0.30;0.30;;;;;;;-1.75;76.81;103128.72;5009400;28;20049;-75
2024/01/09 02:27:38;;;;;;;0.75;0.70;;;;;;;-1.79;76.82;103126.69;5015313;28;20045;-75
2024/01/09 02:30:05;;;;;;;0.50;0.50;;;;;;;-1.80;76.93;103119.81;5015613;28;20138;-75
2024/01/09 02:32:33;;;;;;;0.40;0.40;;;;;;;-1.82;76.88;103125.31;5001057;28;20029;-76
2024/01/09 02:34:59;;;;;;;0.50;0.50;;;;;;;-1.89;76.80;103121.88;4993523;28;20046;-76
2024/01/09 02:37:25;;;;;;;0.43;0.43;;;;;;;-1.90;77.31;103117.63;5010658;28;20037;-75
2024/01/09 02:39:50;;;;;;;0.52;0.52;;;;;;;-1.86;76.76;103110.91;5010196;28;20037;-76
2024/01/09 02:42:16;;;;;;;0.68;0.68;;;;;;;-1.92;76.74;103120.44;4993970;28;20038;-76
2024/01/09 02:44:41;;;;;;;0.55;0.55;;;;;;;-1.94;76.91;103119.06;5020636;28;20509;-75
2024/01/09 02:47:08;;;;;;;0.40;0.40;;;;;;;-1.93;76.23;103107.47;5021758;28;20455;-75
2024/01/09 02:49:35;;;;;;;1.65;0.52;;;;;;;-1.97;76.11;103115.00;5014663;28;20057;-75
2024/01/09 02:52:02;;;;;;;1.08;1.00;;;;;;;-2.03;76.88;103118.47;5015635;28;20059;-75
2024/01/09 02:54:27;;;;;;;0.30;0.30;;;;;;;-2.03;76.21;103129.03;5015627;28;20025;-75
2024/01/09 02:56:53;;;;;;;0.60;0.60;;;;;;;-2.02;76.56;103122.75;5016440;28;20021;-75
2024/01/09 02:59:18;;;;;;;0.40;0.40;;;;;;;-2.03;76.74;103120.28;5021675;28;20044;-76
2024/01/09 03:01:44;;;;;;;2.33;0.90;;;;;;;-2.06;76.62;103118.91;5022779;28;20047;-77
2024/01/09 03:04:09;;;;;;;1.27;0.85;;;;;;;-2.03;76.01;103122.94;5019669;28;20122;-75
2024/01/09 03:06:35;;;;;;;0.25;0.25;;;;;;;-2.08;76.46;103120.94;5016552;28;20037;-75
2024/01/09 03:09:00;;;;;;;0.30;0.30;;;;;;;-2.02;76.66;103127.22;5027118;28;20043;-75
2024/01/09 03:11:26;;;;;;;0.40;0.40;;;;;;;-2.02;76.18;103122.75;5027756;28;20068;-76
2024/01/09 03:13:51;;;;;;;0.55;0.55;;;;;;;-2.04;75.62;103122.16;5049581;28;20168;-75
2024/01/09 03:16:17;;;;;;;1.95;0.88;;;;;;;-2.13;76.29;103120.75;5032663;28;20051;-75
2024/01/09 03:18:43;;;;;;;0.93;0.93;;;;;;;-2.11;76.65;103120.56;5030485;28;21198;-75
2024/01/09 03:21:12;;;;;;;0.52;0.52;;;;;;;-2.14;76.67;103131.50;5030698;28;20720;-74
2024/01/09 03:23:37;;;;;;;0.75;0.75;;;;;;;-2.13;76.75;103120.75;5031425;28;20041;-75
2024/01/09 03:26:03;;;;;;;0.57;0.57;;;;;;;-2.13;76.37;103118.09;5029846;28;20099;-75
2024/01/09 03:28:28;;;;;;;1.88;0.80;;;;;;;-2.09;75.87;103127.22;5042342;28;20033;-75
2024/01/09 03:30:54;;;;;;;0.95;0.75;;;;;;;-2.14;75.97;103119.13;5022758;28;20045;-74
2024/01/09 03:33:19;;;;;;;0.82;0.82;;;;;;;-2.20;76.10;103122.59;5038290;28;20711;-75
2024/01/09 03:35:45;;;;;;;1.52;1.42;;;;;;;-2.26;75.93;103119.97;5035547;28;20021;-76
2024/01/09 03:38:11;;;;;;;0.55;0.55;;;;;;;-2.32;76.87;103118.19;5032382;28;20037;-76
2024/01/09 03:40:37;;;;;;;0.65;0.65;;;;;;;-2.28;77.48;103122.84;5023994;28;20689;-76
2024/01/09 03:43:05;;;;;;;0.60;0.60;;;;;;;-2.21;77.06;103122.81;5016646;28;20045;-76
2024/01/09 03:45:31;;;;;;;0.50;0.50;;;;;;;-2.19;77.33;103112.88;5020526;28;20067;-77
2024/01/09 03:47:58;;;;;;;0.40;0.40;;;;;;;-2.23;76.98;103109.03;5018131;28;20045;-77
2024/01/09 03:50:24;;;;;;;0.30;0.30;;;;;;;-2.36;77.36;103106.44;5015912;28;20037;-77
2024/01/09 03:52:49;;;;;;;0.40;0.40;;;;;;;-2.34;76.66;103105.19;5012816;28;20498;-75
2024/01/09 03:55:16;;;;;;;2.23;1.27;;;;;;;-2.31;77.22;103103.97;5014762;28;20041;-76
2024/01/09 03:57:44;;;;;;;0.60;0.60;;;;;;;-2.33;77.27;103104.19;5018472;28;20037;-77
2024/01/09 04:00:10;;;;;;;0.55;0.55;;;;;;;-2.35;77.52;103103.59;5020063;28;20030;-75
2024/01/09 04:02:37;;;;;;;1.15;1.15;;;;;;;-2.40;77.81;103097.31;5000001;28;20040;-75
2024/01/09 04:05:04;;;;;;;0.68;0.68;;;;;;;-2.33;77.72;103096.28;5014001;28;20065;-75
2024/01/09 04:07:29;;;;;;;0.65;0.65;;;;;;;-2.30;77.77;103098.50;5013591;28;20581;-75
2024/01/09 04:09:55;;;;;;;0.40;0.40;;;;;;;-2.35;77.63;103100.97;4996703;28;20498;-75
2024/01/09 04:12:21;;;;;;;0.50;0.50;;;;;;;-2.26;77.40;103104.16;5012868;28;20675;-76
2024/01/09 04:14:49;;;;;;;0.82;0.82;;;;;;;-2.26;77.20;103099.69;5004631;28;20021;-76
2024/01/09 04:17:15;;;;;;;0.60;0.60;;;;;;;-2.25;77.26;103101.34;5026127;28;20529;-76
2024/01/09 04:19:40;;;;;;;0.32;0.32;;;;;;;-2.27;77.54;103105.19;5020026;28;20116;-77
2024/01/09 04:22:07;;;;;;;0.60;0.60;;;;;;;-2.34;77.42;103104.41;5019299;28;20091;-75
2024/01/09 04:24:33;;;;;;;2.55;0.80;;;;;;;-2.36;77.84;103099.31;5017238;28;20095;-76
2024/01/09 04:26:59;;;;;;;0.63;0.63;;;;;;;-2.36;77.64;103109.88;5018502;28;20045;-76
2024/01/09 04:29:25;;;;;;;0.40;0.40;;;;;;;-2.38;78.16;103100.56;5021904;28;20044;-76
2024/01/09 04:31:51;;;;;;;0.60;0.60;;;;;;;-2.37;78.31;103110.91;5029052;28;20087;-76
2024/01/09 04:34:16;;;;;;;0.57;0.57;;;;;;;-2.39;78.45;103115.56;5022003;28;20056;-75
2024/01/09 04:36:42;;;;;;;0.40;0.40;;;;;;;-2.36;78.72;103104.59;5004153;28;20449;-76
2024/01/09 04:39:07;;;;;;;0.50;0.50;;;;;;;-2.33;78.20;103106.84;5000587;28;20049;-76
2024/01/09 04:41:33;;;;;;;0.30;0.30;;;;;;;-2.41;78.92;103100.97;5002459;28;20048;-76
2024/01/09 04:43:58;;;;;;;0.60;0.60;;;;;;;-2.35;78.66;103111.50;5026628;28;20044;-75
2024/01/09 04:46:23;;;;;;;0.40;0.40;;;;;;;-2.36;78.31;103107.22;5027403;28;20025;-76
2024/01/09 04:48:49;;;;;;;2.30;0.70;;;;;;;-2.31;78.04;103106.63;5020248;28;20037;-76
2024/01/09 04:51:14;;;;;;;0.70;0.70;;;;;;;-2.32;77.82;103105.81;5016928;28;20029;-76
2024/01/09 04:53:40;;;;;;;0.45;0.45;;;;;;;-2.39;77.88;103104.19;5020297;28;20064;-75
2024/01/09 04:56:06;;;;;;;0.30;0.30;;;;;;;-2.50;78.94;103108.31;5017945;28;20029;-76
2024/01/09 04:58:31;;;;;;;0.52;0.52;;;;;;;-2.53;79.30;103110.53;5018971;28;20060;-76
2024/01/09 05:00:57;;;;;;;1.02;1.02;;;;;;;-2.46;79.00;103101.59;5018421;28;20087;-77
2024/01/09 05:03:22;;;;;;;1.13;1.13;;;;;;;-2.41;78.47;103114.16;5011664;28;20156;-76
2024/01/09 05:05:48;;;;;;;0.30;0.30;;;;;;;-2.46;78.12;103106.06;5017795;28;20079;-76
2024/01/09 05:08:13;;;;;;;0.43;0.43;;;;;;;-2.45;77.83;103116.41;4999660;28;20028;-76
2024/01/09 05:10:39;;;;;;;0.30;0.30;;;;;;;-2.48;77.83;103106.28;5019571;28;20025;-76
2024/01/09 05:13:04;;;;;;;0.50;0.50;;;;;;;-2.43;77.65;103111.72;5018065;28;20094;-76
2024/01/09 05:15:30;;;;;;;0.70;0.70;;;;;;;-2.42;77.15;103112.53;5017428;28;20053;-76
2024/01/09 05:17:55;;;;;;;2.00;1.40;;;;;;;-2.51;76.78;103101.41;5033984;28;20029;-76
2024/01/09 05:20:21;;;;;;;0.65;0.65;;;;;;;-2.60;77.12;103102.66;5019363;28;20163;-76
2024/01/09 05:22:47;;;;;;;0.88;0.88;;;;;;;-2.65;77.23;103106.94;5024298;28;22156;-76
2024/01/09 05:25:12;;;;;;;1.80;1.20;;;;;;;-2.67;77.76;103093.13;5019944;28;20091;-76
2024/01/09 05:27:38;;;;;;;0.38;0.38;;;;;;;-2.73;78.21;103101.88;5031555;28;20025;-76
2024/01/09 05:30:07;;;;;;;1.55;1.45;;;;;;;-2.68;78.31;103109.94;5026473;28;20076;-77
2024/01/09 05:32:33;;;;;;;1.63;1.52;;;;;;;-2.66;78.03;103103.47;5030562;28;20116;-76
2024/01/09 05:34:59;;;;;;;0.68;0.68;;;;;;;-2.65;77.04;103106.94;5012705;28;20183;-76
2024/01/09 05:37:24;;;;;;;1.33;1.15;;;;;;;-2.67;77.36;103099.19;5033259;28;20033;-76
2024/01/09 05:39:50;;;;;;;0.82;0.77;;;;;;;-2.69;77.10;103109.13;5016223;28;20045;-76
2024/01/09 05:42:15;;;;;;;0.90;0.90;;;;;;;-2.69;77.25;103101.22;5016658;28;20043;-76
2024/01/09 05:44:41;;;;;;;0.90;0.73;;;;;;;-2.69;76.74;103109.13;5014386;28;20491;-76
2024/01/09 05:47:06;;;;;;;0.80;0.80;;;;;;;-2.82;76.84;103104.72;5016082;28;20300;-76
2024/01/09 05:49:32;;;;;;;0.60;0.60;;;;;;;-2.85;77.01;103104.31;5008510;28;20036;-76
2024/01/09 05:51:57;;;;;;;0.95;0.77;;;;;;;-2.82;77.17;103109.16;5011957;28;20138;-77
2024/01/09 05:54:23;;;;;;;0.45;0.45;;;;;;;-2.85;76.44;103120.13;5010380;28;20032;-76
2024/01/09 05:56:48;;;;;;;0.70;0.70;;;;;;;-2.90;76.79;103104.91;5011664;28;20025;-77
2024/01/09 05:59:14;;;;;;;0.50;0.50;;;;;;;-2.88;77.16;103116.06;5011413;28;20509;-76
2024/01/09 06:01:43;;;;;;;0.57;0.57;;;;;;;-2.88;77.14;103109.97;5005520;28;21216;-77
2024/01/09 06:04:10;;;;;;;1.00;1.00;;;;;;;-2.85;77.20;103120.13;5005534;28;20033;-76
2024/01/09 06:06:35;;;;;;;0.55;0.55;;;;;;;-2.88;77.17;103109.97;5010442;28;20045;-76
2024/01/09 06:09:01;;;;;;;0.85;0.85;;;;;;;-2.92;77.16;103109.59;4988273;28;20052;-76
2024/01/09 06:11:27;;;;;;;2.28;0.95;;;;;;;-2.97;77.33;103113.84;5003603;28;20168;-76
2024/01/09 06:13:55;;;;;;;0.70;0.70;;;;;;;-2.99;77.71;103113.25;5011602;28;20033;-76
2024/01/09 06:16:23;;;;;;;0.85;0.85;;;;;;;-2.91;77.89;103111.22;5015742;28;20021;-77
2024/01/09 06:18:49;;;;;;;0.90;0.85;;;;;;;-2.89;78.11;103108.38;5017184;28;20120;-76
2024/01/09 06:21:14;;;;;;;0.88;0.88;;;;;;;-2.85;77.93;103110.41;4998676;28;21057;-76
2024/01/09 06:23:40;;;;;;;0.40;0.40;;;;;;;-2.84;78.37;103111.19;5016127;28;20033;-75
2024/01/09 06:26:06;;;;;;;1.75;1.50;;;;;;;-2.81;78.84;103113.44;5013032;28;20037;-76
2024/01/09 06:28:32;;;;;;;0.60;0.60;;;;;;;-2.87;79.39;103115.06;5012379;28;20041;-76
2024/01/09 06:30:57;;;;;;;0.40;0.40;;;;;;;-2.84;79.38;103116.47;5013886;28;20088;-76
2024/01/09 06:33:22;;;;;;;0.40;0.40;;;;;;;-2.88;79.29;103121.34;5011041;28;20104;-75
2024/01/09 06:35:48;;;;;;;1.38;0.47;;;;;;;-2.83;79.51;103121.53;5013352;28;20409;-75
2024/01/09 06:38:14;;;;;;;0.50;0.50;;;;;;;-2.82;79.75;103120.53;5019166;28;20026;-74
2024/01/09 06:40:39;;;;;;;0.40;0.40;;;;;;;-2.82;79.75;103117.88;5023203;28;20067;-76
2024/01/09 06:43:05;;;;;;;0.40;0.40;;;;;;;-2.78;79.64;103110.38;5020609;28;20025;-75
2024/01/09 06:45:31;;;;;;;0.65;0.65;;;;;;;-2.76;79.29;103114.44;5011067;28;21540;-76
2024/01/09 06:47:57;;;;;;;0.65;0.65;;;;;;;-2.91;79.59;103115.66;5004609;28;20044;-77
2024/01/09 06:50:23;;;;;;;2.28;0.82;;;;;;;-2.88;79.94;103120.50;5021587;28;20095;-76
2024/01/09 06:52:48;;;;;;;2.55;0.70;;;;;;;-2.81;79.68;103124.75;5013259;28;20037;-78
2024/01/09 06:55:14;;;;;;;1.20;0.93;;;;;;;-2.74;79.54;103122.13;5035788;28;20045;-76
2024/01/09 06:57:39;;;;;;;2.88;1.10;;;;;;;-2.77;79.21;103122.56;5034748;28;20088;-75
2024/01/09 07:00:06;;;;;;;0.30;0.30;;;;;;;-2.78;79.02;103121.75;5032704;28;20087;-75
2024/01/09 07:02:32;;;;;;;0.98;0.65;;;;;;;-2.85;79.43;103126.22;5021732;28;20687;-75
2024/01/09 07:04:57;;;;;;;1.05;1.05;;;;;;;-2.83;79.16;103123.38;5024245;28;20195;-75
2024/01/09 07:07:23;;;;;;;0.40;0.40;;;;;;;-2.83;79.09;103121.53;5014632;28;20093;-75
2024/01/09 07:09:48;;;;;;;0.73;0.73;;;;;;;-2.88;78.62;103115.25;5030087;28;20049;-76
2024/01/09 07:12:16;;;;;;;0.80;0.70;;;;;;;-2.92;78.40;103119.31;5035961;28;20116;-75
2024/01/09 07:14:42;;;;;;;0.40;0.40;;;;;;;-2.91;78.77;103120.94;5036027;28;20124;-77
2024/01/09 07:17:07;;;;;;;0.68;0.68;;;;;;;-2.95;78.91;103133.72;5041815;28;20063;-75
2024/01/09 07:19:33;;;;;;;0.68;0.68;;;;;;;-2.94;79.18;103137.13;5039777;28;20079;-74
2024/01/09 07:21:59;;;;;;;0.75;0.75;;;;;;;-2.91;78.89;103128.84;5034921;28;20038;-75
2024/01/09 07:24:24;;;;;;;0.38;0.38;;;;;;;-2.92;78.69;103135.94;5044178;28;20056;-74
2024/01/09 07:26:50;;;;;;;0.40;0.40;;;;;;;-2.95;78.50;103141.63;5037793;28;20036;-74
2024/01/09 07:29:18;;;;;;;0.50;0.50;;;;;;;-2.92;78.69;103148.28;5042805;28;20033;-74
2024/01/09 07:31:43;;;;;;;0.40;0.40;;;;;;;-2.93;78.68;103149.31;5038041;28;20044;-75
2024/01/09 07:34:09;;;;;;;0.80;0.80;;;;;;;-2.89;78.51;103155.81;5034587;28;20034;-75
2024/01/09 07:36:35;;;;;;;2.92;0.60;;;;;;;-2.87;78.47;103143.25;5028152;28;20564;-74
2024/01/09 07:39:01;;;;;;;0.50;0.50;;;;;;;-2.85;78.39;103149.94;5030473;28;20034;-75
2024/01/09 07:41:26;;;;;;;0.80;0.80;;;;;;;-2.84;78.63;103145.44;5033797;28;20037;-76
2024/01/09 07:43:51;;;;;;;0.70;0.70;;;;;;;-2.90;78.21;103141.81;5029574;28;20478;-75
2024/01/09 07:46:17;;;;;;;1.30;0.88;;;;;;;-2.97;78.47;103140.19;5044274;28;20029;-75
2024/01/09 07:48:43;;;;;;;0.50;0.50;;;;;;;-2.92;78.51;103140.38;5029150;28;20026;-75
2024/01/09 07:51:08;;;;;;;0.60;0.60;;;;;;;-2.87;79.17;103137.97;5021502;28;20041;-75
2024/01/09 07:53:34;;;;;;;1.00;1.00;;;;;;;-2.79;78.33;103140.41;5036763;28;20458;-75
2024/01/09 07:56:00;;;;;;;0.75;0.75;;;;;;;-2.80;78.54;103138.75;5030573;28;20025;-75
2024/01/09 07:58:25;;;;;;;3.65;0.93;;;;;;;-2.77;78.54;103143.63;5031323;28;20379;-75
2024/01/09 08:00:52;;;;;;;0.60;0.60;;;;;;;-2.73;78.39;103142.22;5033700;28;20032;-75
2024/01/09 08:03:17;;;;;;;0.50;0.50;;;;;;;-2.67;78.04;103151.13;5027086;28;20037;-74
2024/01/09 08:05:43;;;;;;;0.93;0.93;;;;;;;-2.67;77.75;103156.41;5031401;28;20091;-75
2024/01/09 08:08:09;;;;;;;0.50;0.50;;;;;;;-2.70;78.16;103149.69;5023570;28;20033;-75
2024/01/09 08:10:34;;;;;;;0.77;0.77;;;;;;;-2.77;78.25;103148.91;5011328;28;20452;-74
2024/01/09 08:13:00;;;;;;;0.80;0.80;;;;;;;-2.69;78.28;103147.88;5029598;28;20029;-74
2024/01/09 08:15:26;;;;;;;2.38;1.23;;;;;;;-2.75;78.07;103149.53;5032597;28;20649;-75
2024/01/09 08:17:52;;;;;;;0.85;0.85;;;;;;;-2.80;78.16;103142.22;5035317;28;20063;-75
2024/01/09 08:20:17;;;;;;;1.20;1.20;;;;;;;-2.83;78.57;103147.88;5051152;28;20505;-74
2024/01/09 08:22:43;;;;;;;1.35;1.25;;;;;;;-2.76;78.67;103146.06;5047435;28;20033;-75
2024/01/09 08:25:09;;;;;;;1.45;1.35;;;;;;;-2.68;78.44;103142.41;5032845;28;20069;-76
2024/01/09 08:27:34;;;;;;;0.75;0.73;;;;;;;-2.72;78.17;103146.47;5036874;28;20041;-75
2024/01/09 08:30:01;;;;;;;4.13;0.90;;;;;;;-2.69;78.29;103155.78;5028838;28;20414;-74
2024/01/09 08:32:26;;;;;;;3.25;1.33;;;;;;;-2.69;78.30;103153.16;5027540;28;20045;-76
2024/01/09 08:34:52;;;;;;;0.73;0.73;;;;;;;-2.65;78.66;103157.00;5032690;28;20033;-75
2024/01/09 08:37:17;;;;;;;1.50;1.00;;;;;;;-2.66;78.92;103158.00;5031808;28;20112;-75
2024/01/09 08:39:43;;;;;;;0.40;0.40;;;;;;;-2.75;79.55;103160.84;5035101;28;20048;-75
2024/01/09 08:42:08;;;;;;;1.90;1.25;;;;;;;-2.64;79.50;103158.63;5014510;28;20051;-75
2024/01/09 08:44:35;;;;;;;0.50;0.50;;;;;;;-2.57;79.51;103162.06;5029688;28;20033;-75
2024/01/09 08:47:01;;;;;;;1.23;1.23;;;;;;;-2.68;80.24;103158.22;5035857;28;20068;-75
2024/01/09 08:49:27;;;;;;;1.00;1.00;;;;;;;-2.66;80.83;103153.56;5030493;28;20108;-75
2024/01/09 08:51:53;;;;;;;1.10;1.10;;;;;;;-2.65;81.14;103163.06;5030541;28;20414;-76
2024/01/09 08:54:20;;;;;;;1.08;1.08;;;;;;;-2.62;81.09;103157.41;5029133;28;20358;-75
2024/01/09 08:56:45;;;;;;;6.38;2.78;;;;;;;-2.48;81.17;103158.19;5035103;28;20025;-75
2024/01/09 08:59:11;;;;;;;1.48;1.33;;;;;;;-2.51;81.18;103154.13;5038223;28;20029;-75
2024/01/09 09:01:37;;;;;;;2.53;1.95;;;;;;;-2.35;81.37;103156.34;5029084;28;20450;-75
2024/01/09 09:04:03;;;;;;;1.20;1.13;;;;;;;-2.41;81.54;103148.44;5033136;28;20056;-74
2024/01/09 09:06:29;;;;;;;7.20;3.50;;;;;;;-2.37;82.38;103150.47;5034359;28;20037;-75
2024/01/09 09:08:54;;;;;;;0.98;0.98;;;;;;;-2.38;83.07;103151.47;5031338;28;20037;-75
2024/01/09 09:11:20;;;;;;;4.53;2.05;;;;;;;-2.18;83.40;103151.41;5031306;28;20036;-75
2024/01/09 09:13:45;;;;;;;1.75;1.65;;;;;;;-2.03;83.29;103158.06;5035860;28;20036;-75
2024/01/09 09:16:11;;;;;;;2.92;2.28;;;;;;;-1.82;83.12;103147.22;5031977;28;20049;-75
2024/01/09 09:18:36;;;;;;;1.17;1.10;;;;;;;-1.66;82.38;103153.00;5030288;28;20190;-75
2024/01/09 09:21:03;;;;;;;0.80;0.73;;;;;;;-1.53;82.30;103152.97;5029317;28;20114;-75
2024/01/09 09:23:29;;;;;;;1.42;0.95;;;;;;;-1.40;82.30;103152.88;5033055;28;20025;-75
2024/01/09 09:25:55;;;;;;;0.85;0.85;;;;;;;-1.30;82.02;103159.31;5033547;28;20065;-75
2024/01/09 09:28:20;;;;;;;0.40;0.40;;;;;;;-1.25;81.84;103156.84;5027587;28;20037;-75
2024/01/09 09:30:45;;;;;;;0.45;0.45;;;;;;;-1.20;81.52;103153.56;5030771;28;20391;-75
2024/01/09 09:33:12;;;;;;;1.70;1.60;;;;;;;-1.14;81.76;103157.97;5032616;28;20048;-75
2024/01/09 09:35:37;;;;;;;1.40;1.30;;;;;;;-1.21;82.69;103163.31;5031366;28;20418;-75
2024/01/09 09:38:04;;;;;;;1.25;0.93;;;;;;;-1.09;82.76;103156.31;5028623;28;20033;-75
2024/01/09 09:40:29;;;;;;;0.65;0.63;;;;;;;-1.06;83.04;103161.16;5031707;28;20585;-75
2024/01/09 09:42:58;;;;;;;0.95;0.88;;;;;;;-0.84;82.42;103160.78;5015002;28;20108;-75
2024/01/09 09:45:25;;;;;;;0.70;0.70;;;;;;;-0.79;81.24;103161.75;5028616;28;20037;-75
2024/01/09 09:47:53;;;;;;;2.58;1.42;;;;;;;-0.63;81.50;103155.94;5031326;28;20430;-76
2024/01/09 09:50:21;;;;;;;1.15;1.15;;;;;;;-0.57;81.42;103164.81;5030025;28;20523;-76
2024/01/09 09:52:46;;;;;;;1.08;0.32;;;;;;;-0.50;80.61;103161.09;5034551;28;20033;-75
2024/01/09 09:55:11;;;;;;;0.60;0.60;;;;;;;-0.39;80.85;103163.03;5036363;28;20037;-76
2024/01/09 09:57:37;;;;;;;2.05;1.15;;;;;;;-0.37;80.77;103155.66;5030739;28;20038;-76
2024/01/09 10:00:10;;;;;;;0.60;0.60;;;;;;;-0.41;81.38;103157.16;5029220;28;20033;-76
2024/01/09 10:02:43;;;;;;;0.50;0.50;;;;;;;-0.31;80.88;103151.34;5012831;28;20129;-76
2024/01/09 10:05:13;;;;;;;1.55;1.33;;;;;;;-0.22;80.92;103147.38;5033744;28;20122;-76
2024/01/09 10:07:43;;;;;;;0.60;0.60;;;;;;;-0.07;80.98;103153.91;5030441;28;20042;-76
2024/01/09 10:10:11;;;;;;;0.63;0.63;;;;;;;-0.03;80.80;103149.78;5044000;28;20092;-76
2024/01/09 10:12:37;;;;;;;0.65;0.65;;;;;;;-0.01;80.29;103147.72;5027823;28;20317;-76
2024/01/09 10:15:11;;;;;;;1.73;1.10;;;;;;;0.05;80.43;103148.66;5028373;28;20053;-77
2024/01/09 10:17:40;;;;;;;2.80;0.98;;;;;;;0.09;80.12;103147.19;5032483;28;20033;-76
2024/01/09 10:20:13;;;;;;;0.70;0.70;;;;;;;0.23;79.97;103147.84;5024879;28;20136;-77
2024/01/09 10:22:39;;;;;;;0.40;0.40;;;;;;;0.32;79.75;103154.44;5029854;28;20034;-77
2024/01/09 10:25:06;;;;;;;1.05;1.05;;;;;;;0.32;79.73;103160.53;5029975;28;20044;-76
2024/01/09 10:27:36;;;;;;;2.33;1.17;;;;;;;0.38;79.67;103159.66;5030366;28;20025;-76
2024/01/09 10:30:04;;;;;;;0.70;0.70;;;;;;;0.43;79.26;103149.19;5029362;28;20571;-76
2024/01/09 10:32:32;;;;;;;0.20;0.20;;;;;;;0.44;79.16;103157.94;5013264;28;20124;-77
2024/01/09 10:34:58;;;;;;;0.75;0.50;;;;;;;0.45;79.19;103157.72;5032392;28;20445;-77
2024/01/09 10:37:24;;;;;;;3.63;1.27;;;;;;;0.53;79.03;103149.44;5032769;28;20032;-77
2024/01/09 10:39:50;;;;;;;0.70;0.70;;;;;;;0.51;78.85;103156.00;5030234;28;20037;-76
2024/01/09 10:42:16;;;;;;;0.88;0.88;;;;;;;0.50;79.34;103152.56;5024152;28;20029;-76
2024/01/09 10:44:45;;;;;;;0.63;0.63;;;;;;;0.51;79.44;103154.16;5033746;28;20033;-76
2024/01/09 10:47:15;;;;;;;1.70;1.05;;;;;;;0.44;79.53;103156.09;5026348;28;20116;-76
2024/01/09 10:49:42;;;;;;;0.90;0.80;;;;;;;0.49;79.54;103153.59;5032623;28;20021;-75
2024/01/09 10:52:14;;;;;;;0.52;0.52;;;;;;;0.41;79.26;103147.78;5025883;28;20029;-76
2024/01/09 10:54:44;;;;;;;0.65;0.65;;;;;;;0.34;80.08;103147.88;5024880;28;20030;-76
2024/01/09 10:57:12;;;;;;;0.60;0.60;;;;;;;0.32;80.28;103149.94;5030115;28;20115;-76
2024/01/09 10:59:42;;;;;;;0.40;0.40;;;;;;;0.35;79.95;103144.19;5033027;28;20487;-76
2024/01/09 11:02:16;;;;;;;0.57;0.57;;;;;;;0.33;80.04;103146.25;5029297;28;20025;-76
2024/01/09 11:04:44;;;;;;;0.88;0.85;;;;;;;0.32;80.18;103155.25;5017752;28;20030;-76
2024/01/09 11:07:13;;;;;;;4.13;1.65;;;;;;;0.29;80.92;103141.66;5054458;28;20025;-76
2024/01/09 11:09:41;;;;;;;0.65;0.65;;;;;;;0.30;80.49;103138.78;5033598;28;20441;-77
2024/01/09 11:12:10;;;;;;;0.40;0.40;;;;;;;0.35;79.70;103140.75;5034965;28;20084;-77
2024/01/09 11:14:39;;;;;;;1.02;1.00;;;;;;;0.36;80.39;103129.09;5030642;28;20059;-77
2024/01/09 11:17:08;;;;;;;3.25;0.98;;;;;;;0.43;80.51;103127.16;5032364;28;20037;-76
2024/01/09 11:19:34;;;;;;;0.30;0.30;;;;;;;0.43;80.35;103137.75;5026299;28;20033;-75
2024/01/09 11:22:12;;;;;;;0.90;0.73;;;;;;;0.40;80.33;103130.28;5031807;28;20544;-76